createdAt,value
2019-04-30T00:00:11.067Z,99940.87
2019-04-30T00:03:27.034Z,99935.06
2019-04-30T00:06:34.216Z,99936.53
2019-04-30T00:09:39.918Z,99940.56
2019-04-30T00:12:46.207Z,99942.00
2019-04-30T00:15:52.886Z,99932.16
2019-04-30T00:19:00.920Z,99935.06
2019-04-30T00:22:05.751Z,99936.33
2019-04-30T00:25:11.304Z,99937.45
2019-04-30T00:28:16.678Z,99928.65
2019-04-30T00:31:23.633Z,99935.28
2019-04-30T00:34:30.948Z,99933.31
2019-04-30T00:37:35.891Z,99926.16
2019-04-30T00:40:41.148Z,99919.74
2019-04-30T00:43:48.029Z,99926.56
2019-04-30T00:46:53.402Z,99930.63
2019-04-30T00:50:00.266Z,99928.95
2019-04-30T00:53:12.287Z,99927.61
2019-04-30T00:56:15.799Z,99923.78
2019-04-30T00:59:21.436Z,99924.39
2019-04-30T01:02:48.601Z,99926.98
2019-04-30T01:05:55.175Z,99923.87
2019-04-30T01:09:05.388Z,99921.80
2019-04-30T01:12:19.128Z,99921.60
2019-04-30T01:15:20.367Z,99919.28
2019-04-30T01:18:28.530Z,99920.10
2019-04-30T01:21:32.439Z,99917.44
2019-04-30T01:24:38.680Z,99914.72
2019-04-30T01:27:45.869Z,99908.11
2019-04-30T01:30:53.868Z,99903.58
2019-04-30T01:33:58.983Z,99903.25
2019-04-30T01:37:04.139Z,99899.07
2019-04-30T01:40:13.552Z,99899.56
2019-04-30T01:43:16.641Z,99891.53
2019-04-30T01:46:21.770Z,99892.23
2019-04-30T01:49:28.905Z,99895.26
2019-04-30T01:52:51.507Z,99892.87
2019-04-30T01:56:11.864Z,99899.09
2019-04-30T01:59:20.590Z,99893.31
2019-04-30T02:02:28.639Z,99889.98
2019-04-30T02:05:33.776Z,99891.36
2019-04-30T02:08:39.342Z,99891.55
2019-04-30T02:11:45.567Z,99892.79
2019-04-30T02:14:51.814Z,99895.59
2019-04-30T02:17:58.769Z,99892.79
2019-04-30T02:21:03.969Z,99894.02
2019-04-30T02:24:11.164Z,99901.41
2019-04-30T02:27:16.042Z,99901.91
2019-04-30T02:30:21.267Z,99898.99
2019-04-30T02:33:27.171Z,99905.30
2019-04-30T02:36:45.337Z,99905.83
2019-04-30T02:39:50.600Z,99912.58
2019-04-30T02:42:58.021Z,99902.94
2019-04-30T02:46:04.119Z,99900.36
2019-04-30T02:49:10.861Z,99910.30
2019-04-30T02:52:19.588Z,99908.52
2019-04-30T02:55:36.641Z,99909.27
2019-04-30T02:58:41.854Z,99908.63
2019-04-30T03:01:49.924Z,99905.23
2019-04-30T03:04:53.863Z,99895.48
2019-04-30T03:08:00.378Z,99896.22
2019-04-30T03:11:05.760Z,99893.31
2019-04-30T03:14:11.131Z,99897.23
2019-04-30T03:17:33.937Z,99892.41
2019-04-30T03:20:49.554Z,99888.48
2019-04-30T03:23:53.967Z,99882.35
2019-04-30T03:26:59.501Z,99879.14
2019-04-30T03:30:05.887Z,99881.00
2019-04-30T03:33:12.887Z,99876.47
2019-04-30T03:36:21.623Z,99879.33
2019-04-30T03:39:24.911Z,99881.94
2019-04-30T03:42:30.154Z,99884.00
2019-04-30T03:45:35.347Z,99886.50
2019-04-30T03:48:40.651Z,99889.83
2019-04-30T03:51:45.804Z,99887.95
2019-04-30T03:54:51.051Z,99888.90
2019-04-30T03:57:56.187Z,99885.56
2019-04-30T04:01:10.960Z,99889.39
2019-04-30T04:04:25.322Z,99896.55
2019-04-30T04:07:53.146Z,99887.70
2019-04-30T04:11:02.580Z,99883.27
2019-04-30T04:14:09.308Z,99881.61
2019-04-30T04:17:14.607Z,99885.99
2019-04-30T04:20:20.306Z,99891.16
2019-04-30T04:23:25.648Z,99890.84
2019-04-30T04:26:30.982Z,99887.44
2019-04-30T04:29:36.138Z,99891.47
2019-04-30T04:32:41.386Z,99889.63
2019-04-30T04:35:49.552Z,99885.04
2019-04-30T04:38:53.411Z,99883.61
2019-04-30T04:41:59.950Z,99883.30
2019-04-30T04:45:05.751Z,99892.20
2019-04-30T04:48:10.922Z,99894.67
2019-04-30T04:51:31.264Z,99893.03
2019-04-30T04:54:22.925Z,99896.75
2019-04-30T04:57:30.420Z,99901.95
2019-04-30T05:00:35.034Z,99897.59
2019-04-30T05:03:40.461Z,99899.67
2019-04-30T05:06:45.697Z,99896.94
2019-04-30T05:09:50.924Z,99888.77
2019-04-30T05:12:56.084Z,99897.51
2019-04-30T05:16:01.287Z,99904.88
2019-04-30T05:19:06.424Z,99901.17
2019-04-30T05:22:11.593Z,99908.59
2019-04-30T05:25:18.698Z,99911.27
2019-04-30T05:28:23.737Z,99917.78
2019-04-30T05:31:29.096Z,99912.94
2019-04-30T05:34:34.235Z,99921.53
2019-04-30T05:37:39.369Z,99923.56
2019-04-30T05:40:45.699Z,99929.20
2019-04-30T05:43:50.901Z,99932.48
2019-04-30T05:46:56.073Z,99928.89
2019-04-30T05:50:04.648Z,99935.75
2019-04-30T05:53:09.806Z,99938.98
2019-04-30T05:56:19.341Z,99938.54
2019-04-30T05:59:24.707Z,99944.16
2019-04-30T06:02:33.725Z,99937.63
2019-04-30T06:05:36.881Z,99940.27
2019-04-30T06:09:06.286Z,99947.27
2019-04-30T06:12:22.322Z,99949.69
2019-04-30T06:15:40.612Z,99948.06
2019-04-30T06:18:45.764Z,99942.83
2019-04-30T06:21:50.948Z,99951.54
2019-04-30T06:24:56.113Z,99949.22
2019-04-30T06:28:01.831Z,99950.52
2019-04-30T06:31:09.015Z,99948.89
2019-04-30T06:34:14.041Z,99959.09
2019-04-30T06:37:19.739Z,99954.75
2019-04-30T06:40:25.250Z,99960.09
2019-04-30T06:43:31.201Z,99962.33
2019-04-30T06:46:36.599Z,99965.13
2019-04-30T06:49:41.996Z,99970.55
2019-04-30T06:52:56.258Z,99966.94
2019-04-30T06:55:54.879Z,99967.31
2019-04-30T06:59:00.170Z,99971.69
2019-04-30T07:02:05.327Z,99979.61
2019-04-30T07:05:12.059Z,99971.39
2019-04-30T07:08:51.985Z,99967.82
2019-04-30T07:12:02.230Z,99968.27
2019-04-30T07:15:08.692Z,99965.48
2019-04-30T07:18:13.957Z,99966.16
2019-04-30T07:21:19.942Z,99964.84
2019-04-30T07:24:25.227Z,99969.60
2019-04-30T07:27:32.401Z,99972.20
2019-04-30T07:30:39.527Z,99972.61
2019-04-30T07:33:44.795Z,99967.70
2019-04-30T07:37:10.457Z,99971.55
2019-04-30T07:39:58.760Z,99975.02
2019-04-30T07:43:03.837Z,99982.03
2019-04-30T07:46:09.599Z,99969.80
2019-04-30T07:49:14.802Z,99975.48
2019-04-30T07:52:21.543Z,99976.98
2019-04-30T07:55:26.856Z,99975.03
2019-04-30T07:58:32.098Z,99966.17
2019-04-30T08:01:37.232Z,99959.15
2019-04-30T08:05:13.432Z,99967.88
2019-04-30T08:08:24.988Z,99971.78
2019-04-30T08:11:26.595Z,99966.92
2019-04-30T08:14:31.886Z,99975.80
2019-04-30T08:17:38.727Z,99965.43
2019-04-30T08:20:43.873Z,99963.90
2019-04-30T08:23:49.091Z,99963.72
2019-04-30T08:26:54.178Z,99972.78
2019-04-30T08:29:59.344Z,99970.73
2019-04-30T08:33:04.439Z,99970.64
2019-04-30T08:36:09.592Z,99974.67
2019-04-30T08:39:14.691Z,99976.63
2019-04-30T08:42:30.898Z,99971.45
2019-04-30T08:45:26.899Z,99980.09
2019-04-30T08:48:44.222Z,99972.89
2019-04-30T08:51:39.604Z,99969.53
2019-04-30T08:54:45.603Z,99973.80
2019-04-30T08:57:50.839Z,99970.08
2019-04-30T09:00:56.013Z,99958.76
2019-04-30T09:04:01.141Z,99963.13
2019-04-30T09:07:06.299Z,99961.55
2019-04-30T09:10:11.537Z,99962.47
2019-04-30T09:13:16.802Z,99961.55
2019-04-30T09:16:21.957Z,99962.91
2019-04-30T09:19:29.738Z,99960.01
2019-04-30T09:22:35.176Z,99959.89
2019-04-30T09:25:40.334Z,99963.76
2019-04-30T09:28:45.529Z,99962.48
2019-04-30T09:31:50.675Z,99965.14
2019-04-30T09:34:55.840Z,99966.74
2019-04-30T09:38:02.018Z,99967.32
2019-04-30T09:41:09.167Z,99970.84
2019-04-30T09:44:14.357Z,99965.41
2019-04-30T09:47:20.630Z,99966.44
2019-04-30T09:50:25.865Z,99963.30
2019-04-30T09:53:31.650Z,99958.88
2019-04-30T09:56:36.953Z,99965.63
2019-04-30T09:59:42.140Z,99961.94
2019-04-30T10:02:48.901Z,99960.52
2019-04-30T10:05:54.187Z,99951.05
2019-04-30T10:08:59.744Z,99958.65
2019-04-30T10:12:12.493Z,99946.64
2019-04-30T10:15:31.659Z,99947.41
2019-04-30T10:18:36.916Z,99947.91
2019-04-30T10:21:42.091Z,99948.45
2019-04-30T10:24:49.312Z,99941.73
2019-04-30T10:27:54.141Z,99937.98
2019-04-30T10:30:59.298Z,99936.12
2019-04-30T10:34:04.591Z,99939.41
2019-04-30T10:37:10.145Z,99939.20
2019-04-30T10:40:15.575Z,99931.90
2019-04-30T10:43:20.768Z,99925.94
2019-04-30T10:46:25.915Z,99921.70
2019-04-30T10:49:31.068Z,99925.60
2019-04-30T10:52:36.181Z,99918.88
2019-04-30T10:55:41.462Z,99912.96
2019-04-30T10:58:46.659Z,99914.66
2019-04-30T11:01:51.806Z,99914.45
2019-04-30T11:04:56.874Z,99908.81
2019-04-30T11:08:02.084Z,99915.14
2019-04-30T11:11:07.263Z,99907.91
2019-04-30T11:14:12.412Z,99907.20
2019-04-30T11:17:19.491Z,99895.45
2019-04-30T11:20:24.606Z,99895.36
2019-04-30T11:23:30.154Z,99894.98
2019-04-30T11:26:36.082Z,99889.64
2019-04-30T11:29:41.687Z,99885.02
2019-04-30T11:32:47.506Z,99878.50
2019-04-30T11:36:02.104Z,99879.50
2019-04-30T11:38:59.616Z,99883.05
2019-04-30T11:42:05.155Z,99885.40
2019-04-30T11:45:11.983Z,99868.53
2019-04-30T11:48:19.049Z,99860.22
2019-04-30T11:51:26.818Z,99858.30
2019-04-30T11:54:31.085Z,99865.05
2019-04-30T11:57:36.287Z,99862.46
2019-04-30T12:00:43.167Z,99862.02
2019-04-30T12:03:49.963Z,99856.39
2019-04-30T12:06:56.787Z,99855.74
2019-04-30T12:10:24.004Z,99853.77
2019-04-30T12:13:33.474Z,99844.80
2019-04-30T12:16:39.608Z,99849.88
2019-04-30T12:19:44.830Z,99837.52
2019-04-30T12:22:49.946Z,99855.11
2019-04-30T12:25:55.153Z,99843.83
2019-04-30T12:29:00.329Z,99844.84
2019-04-30T12:32:05.636Z,99835.39
2019-04-30T12:35:11.561Z,99839.23
2019-04-30T12:38:19.143Z,99838.08
2019-04-30T12:41:24.436Z,99838.88
2019-04-30T12:44:29.643Z,99830.27
2019-04-30T12:47:38.594Z,99830.73
2019-04-30T12:51:01.127Z,99830.05
2019-04-30T12:54:14.005Z,99828.70
2019-04-30T12:57:58.135Z,99830.95
2019-04-30T13:00:54.032Z,99819.69
2019-04-30T13:04:01.362Z,99815.33
2019-04-30T13:07:06.644Z,99807.45
2019-04-30T13:10:13.989Z,99808.89
2019-04-30T13:13:20.156Z,99805.31
2019-04-30T13:16:25.688Z,99799.66
2019-04-30T13:19:30.801Z,99796.67
2019-04-30T13:22:35.975Z,99789.36
2019-04-30T13:25:50.750Z,99778.72
2019-04-30T13:28:56.495Z,99778.72
2019-04-30T13:32:01.684Z,99783.06
2019-04-30T13:35:09.124Z,99778.42
2019-04-30T13:38:19.363Z,99772.63
2019-04-30T13:41:51.021Z,99768.03
2019-04-30T13:44:56.448Z,99761.48
2019-04-30T13:48:01.599Z,99767.61
2019-04-30T13:51:06.755Z,99754.83
2019-04-30T13:54:11.886Z,99760.28
2019-04-30T13:57:17.096Z,99760.03
2019-04-30T14:00:25.463Z,99752.62
2019-04-30T14:03:41.468Z,99747.44
2019-04-30T14:07:17.606Z,99741.43
2019-04-30T14:10:22.811Z,99751.02
2019-04-30T14:13:27.981Z,99740.11
2019-04-30T14:16:33.435Z,99732.23
2019-04-30T14:19:38.533Z,99733.33
2019-04-30T14:22:43.720Z,99727.32
2019-04-30T14:25:56.410Z,99722.64
2019-04-30T14:28:55.796Z,99723.75
2019-04-30T14:32:00.959Z,99724.59
2019-04-30T14:35:08.533Z,99719.63
2019-04-30T14:38:13.442Z,99719.63
2019-04-30T14:41:19.086Z,99731.88
2019-04-30T14:44:26.268Z,99718.30
2019-04-30T14:47:43.000Z,99718.30
2019-04-30T14:50:49.010Z,99720.47
2019-04-30T14:54:09.864Z,99722.09
2019-04-30T14:57:33.969Z,99716.00
2019-04-30T15:00:49.774Z,99721.58
2019-04-30T15:03:56.155Z,99723.70
2019-04-30T15:07:01.332Z,99720.70
2019-04-30T15:10:06.780Z,99722.64
2019-04-30T15:13:11.862Z,99719.36
2019-04-30T15:16:17.158Z,99725.39
2019-04-30T15:19:22.443Z,99721.02
2019-04-30T15:22:29.046Z,99731.41
2019-04-30T15:25:34.695Z,99715.25
2019-04-30T15:28:41.473Z,99716.07
2019-04-30T15:31:46.840Z,99716.07
2019-04-30T15:34:52.318Z,99717.18
2019-04-30T15:37:59.420Z,99715.30
2019-04-30T15:41:04.808Z,99713.38
2019-04-30T15:44:10.054Z,99711.42
2019-04-30T15:47:15.466Z,99723.16
2019-04-30T15:50:20.756Z,99718.52
2019-04-30T15:53:26.002Z,99720.73
2019-04-30T15:56:36.920Z,99717.77
2019-04-30T15:59:46.445Z,99713.64
2019-04-30T16:02:59.993Z,99721.02
2019-04-30T16:06:04.367Z,99718.53
2019-04-30T16:09:12.160Z,99713.11
2019-04-30T16:12:28.677Z,99724.00
2019-04-30T16:15:33.884Z,99723.69
2019-04-30T16:18:49.357Z,99710.87
2019-04-30T16:21:54.737Z,99711.16
2019-04-30T16:25:00.716Z,99711.95
2019-04-30T16:28:05.905Z,99718.20
2019-04-30T16:31:11.161Z,99717.38
2019-04-30T16:34:16.480Z,99707.84
2019-04-30T16:37:21.679Z,99705.69
2019-04-30T16:40:29.055Z,99715.44
2019-04-30T16:43:33.907Z,99712.73
2019-04-30T16:46:39.549Z,99706.20
2019-04-30T16:49:44.865Z,99700.19
2019-04-30T16:52:50.102Z,99694.97
2019-04-30T16:55:55.332Z,99696.63
2019-04-30T16:59:01.208Z,99690.58
2019-04-30T17:02:06.579Z,99690.58
2019-04-30T17:05:25.332Z,99689.38
2019-04-30T17:08:39.186Z,99698.72
2019-04-30T17:12:01.982Z,99699.41
2019-04-30T17:15:20.579Z,99700.05
2019-04-30T17:18:25.774Z,99704.60
2019-04-30T17:21:30.987Z,99701.78
2019-04-30T17:24:36.154Z,99699.41
2019-04-30T17:27:41.400Z,99698.30
2019-04-30T17:30:46.780Z,99702.23
2019-04-30T17:33:52.021Z,99699.59
2019-04-30T17:36:59.036Z,99701.47
2019-04-30T17:40:05.509Z,99701.06
2019-04-30T17:43:10.819Z,99700.11
2019-04-30T17:46:16.122Z,99706.27
2019-04-30T17:49:21.415Z,99708.30
2019-04-30T17:52:29.782Z,99711.95
2019-04-30T17:55:36.146Z,99709.78
2019-04-30T17:58:41.610Z,99707.98
2019-04-30T18:01:59.608Z,99715.22
2019-04-30T18:05:05.672Z,99713.22
2019-04-30T18:08:10.924Z,99716.34
2019-04-30T18:11:16.124Z,99717.42
2019-04-30T18:14:21.348Z,99713.77
2019-04-30T18:17:26.577Z,99715.29
2019-04-30T18:20:39.157Z,99728.95
2019-04-30T18:24:01.957Z,99722.52
2019-04-30T18:27:20.945Z,99719.98
2019-04-30T18:30:29.948Z,99721.66
2019-04-30T18:33:35.430Z,99725.30
2019-04-30T18:36:40.681Z,99726.30
2019-04-30T18:39:45.975Z,99727.29
2019-04-30T18:42:51.172Z,99731.85
2019-04-30T18:45:56.341Z,99737.30
2019-04-30T18:49:01.605Z,99738.73
2019-04-30T18:52:08.986Z,99743.73
2019-04-30T18:55:14.025Z,99748.06
2019-04-30T18:58:20.107Z,99753.56
2019-04-30T19:01:25.508Z,99754.38
2019-04-30T19:04:30.749Z,99758.58
2019-04-30T19:07:41.543Z,99755.59
2019-04-30T19:11:12.663Z,99764.28
2019-04-30T19:14:33.328Z,99764.51
2019-04-30T19:17:56.634Z,99763.29
2019-04-30T19:21:02.036Z,99767.63
2019-04-30T19:24:08.630Z,99779.78
2019-04-30T19:27:13.961Z,99777.38
2019-04-30T19:30:20.459Z,99786.88
2019-04-30T19:33:25.713Z,99786.90
2019-04-30T19:36:37.386Z,99789.59
2019-04-30T19:39:39.218Z,99790.06
2019-04-30T19:42:44.507Z,99789.34
2019-04-30T19:45:51.200Z,99790.30
2019-04-30T19:48:58.578Z,99787.89
2019-04-30T19:52:08.635Z,99804.39
2019-04-30T19:55:11.091Z,99805.16
2019-04-30T19:58:26.136Z,99801.69
2019-04-30T20:01:23.324Z,99812.09
2019-04-30T20:04:34.123Z,99814.49
2019-04-30T20:07:35.546Z,99812.91
2019-04-30T20:10:40.734Z,99812.28
2019-04-30T20:13:45.961Z,99817.14
2019-04-30T20:16:51.177Z,99814.52
2019-04-30T20:19:56.348Z,99814.41
2019-04-30T20:23:01.563Z,99812.55
2019-04-30T20:26:06.852Z,99814.66
2019-04-30T20:29:12.086Z,99818.08
2019-04-30T20:32:17.278Z,99819.73
2019-04-30T20:35:27.193Z,99823.55
2019-04-30T20:39:00.618Z,99818.37
2019-04-30T20:42:07.421Z,99818.13
2019-04-30T20:45:12.718Z,99814.04
2019-04-30T20:48:18.824Z,99821.42
2019-04-30T20:51:24.055Z,99817.13
2019-04-30T20:54:29.281Z,99820.88
2019-04-30T20:57:35.498Z,99817.52
2019-04-30T21:00:40.777Z,99818.66
2019-04-30T21:03:46.010Z,99823.33
2019-04-30T21:06:51.198Z,99824.24
2019-04-30T21:09:56.308Z,99821.39
2019-04-30T21:13:01.466Z,99820.27
2019-04-30T21:16:06.613Z,99819.55
2019-04-30T21:19:11.887Z,99817.55
2019-04-30T21:22:17.086Z,99818.66
2019-04-30T21:25:22.217Z,99809.55
2019-04-30T21:28:29.521Z,99811.80
2019-04-30T21:31:52.097Z,99811.39
2019-04-30T21:35:16.245Z,99805.71
2019-04-30T21:38:21.521Z,99808.48
2019-04-30T21:41:26.663Z,99806.49
2019-04-30T21:44:31.781Z,99809.86
2019-04-30T21:47:36.944Z,99813.02
2019-04-30T21:50:42.160Z,99804.25
2019-04-30T21:53:47.350Z,99813.24
2019-04-30T21:56:52.444Z,99810.30
2019-04-30T21:59:58.768Z,99810.52
2019-04-30T22:03:04.897Z,99808.13
2019-04-30T22:06:10.647Z,99808.20
2019-04-30T22:09:16.786Z,99819.48
2019-04-30T22:12:23.319Z,99819.64
2019-04-30T22:15:28.558Z,99819.33
2019-04-30T22:18:33.800Z,99812.31
2019-04-30T22:21:39.635Z,99817.14
2019-04-30T22:24:45.839Z,99821.62
2019-04-30T22:27:51.054Z,99812.77
2019-04-30T22:30:56.232Z,99811.03
2019-04-30T22:34:01.441Z,99806.64
2019-04-30T22:37:08.446Z,99810.83
2019-04-30T22:40:13.566Z,99808.68
2019-04-30T22:43:18.688Z,99809.28
2019-04-30T22:46:23.895Z,99810.27
2019-04-30T22:49:29.035Z,99812.69
2019-04-30T22:52:34.173Z,99814.05
2019-04-30T22:55:39.363Z,99815.85
2019-04-30T22:58:44.630Z,99812.45
2019-04-30T23:02:21.109Z,99810.77
2019-04-30T23:05:26.387Z,99813.62
2019-04-30T23:08:31.678Z,99808.64
2019-04-30T23:11:36.803Z,99805.00
2019-04-30T23:14:41.970Z,99806.61
2019-04-30T23:17:47.164Z,99805.27
2019-04-30T23:20:52.384Z,99815.08
2019-04-30T23:23:57.517Z,99809.41
2019-04-30T23:27:02.626Z,99807.70
2019-04-30T23:30:07.969Z,99803.64
2019-04-30T23:33:13.193Z,99798.21
2019-04-30T23:36:18.382Z,99799.48
2019-04-30T23:39:23.595Z,99797.70
2019-04-30T23:42:28.771Z,99792.31
2019-04-30T23:45:33.925Z,99790.06
2019-04-30T23:48:39.046Z,99794.56
2019-04-30T23:51:44.193Z,99788.97
2019-04-30T23:54:49.320Z,99786.36
2019-04-30T23:57:54.563Z,99785.39
